MUCF/CFG METAR and TAF weather

Enter ICAO airport designator
Station Type Date Time Source
MUCF METAR 2022/12/08 12:50 UTC NOAA

MUCF 081250Z 06005KT 9999 FEW025 20/18 Q1020


Station Type Date Time Source
MUCF Decoded METAR 2022/12/08 12:50 UTC NOAA

Cienfuegos, Las Villas, Cuba (MUCF) 22-09N 080-24W 39M
Dec 08, 2022 - 07:50 AM EST / 2022.12.08 1250 UTC
Wind: from the ENE (060 degrees) at 6 MPH (5 KT):0
Visibility: greater than 7 mile(s):0
Sky conditions: mostly clear
Temperature: 68 F (20 C)
Dew Point: 64 F (18 C)
Relative Humidity: 88%
Pressure (altimeter): 30.12 in. Hg (1020 hPa)
ob: MUCF 081250Z 06005KT 9999 FEW025 20/18 Q1020
cycle: 13

Station Type Date Time Source
MUCF TAF 2022/12/08 12:03 UTC NOAA

MUCF 081100Z 0812/0824 06010KT 9000 SCT020

Example: see airport list